Time;durP1;ratioP1;P1;durP2;ratioP2;P2;SDS_P1;SDS_P2;PMS_P1;PMS_P2;Temp;Humidity;BMP_temperature;BMP_pressure;BME280_temperature;BME280_humidity;BME280_pressure;Samples;Min_cycle;Max_cycle;Signal;HPM_P1;HPM_P2
2021/05/04 00:00:48;;;;;;;8.48;5.80;;;;;;;4.58;100.00;100396.98;256501;1099;114443;-78
2021/05/04 00:05:53;;;;;;;8.43;5.77;;;;;;;4.57;100.00;100384.70;256459;1104;114293;-78
2021/05/04 00:10:54;;;;;;;8.27;4.80;;;;;;;4.63;100.00;100392.53;256961;1104;114124;-77
2021/05/04 00:15:56;;;;;;;6.38;4.70;;;;;;;4.59;100.00;100377.61;256606;1099;114377;-79
2021/05/04 00:20:58;;;;;;;8.28;5.28;;;;;;;4.55;100.00;100381.21;256667;1099;114093;-78
2021/05/04 00:25:59;;;;;;;8.33;5.60;;;;;;;4.47;100.00;100383.09;256697;1104;113956;-78
2021/05/04 00:31:01;;;;;;;5.73;4.97;;;;;;;4.38;100.00;100380.58;256646;1104;114287;-77
2021/05/04 00:36:04;;;;;;;6.78;5.25;;;;;;;4.42;100.00;100377.02;256453;1100;114231;-77
2021/05/04 00:41:05;;;;;;;7.90;5.23;;;;;;;4.33;100.00;100361.30;256629;1099;114395;-78
2021/05/04 00:46:07;;;;;;;6.98;5.03;;;;;;;4.34;100.00;100360.41;256436;1104;114158;-78
2021/05/04 00:51:09;;;;;;;8.83;5.43;;;;;;;4.22;100.00;100349.16;256401;1100;114672;-78
2021/05/04 00:56:11;;;;;;;6.55;5.15;;;;;;;4.20;100.00;100353.58;256301;1100;114267;-77
2021/05/04 01:01:13;;;;;;;5.20;4.70;;;;;;;4.17;100.00;100350.97;256086;1097;114730;-79
2021/05/04 01:06:15;;;;;;;7.23;5.23;;;;;;;4.04;100.00;100352.03;256340;1104;114662;-77
2021/05/04 01:11:16;;;;;;;8.40;5.55;;;;;;;3.91;100.00;100352.20;255972;1100;114249;-77
2021/05/04 01:16:19;;;;;;;7.65;6.00;;;;;;;3.79;100.00;100357.65;255751;1099;114342;-78
2021/05/04 01:21:21;;;;;;;8.27;5.50;;;;;;;3.81;100.00;100348.83;256250;1104;114447;-77
2021/05/04 01:26:22;;;;;;;7.90;5.95;;;;;;;3.80;100.00;100356.77;256226;1104;114573;-79
2021/05/04 01:31:24;;;;;;;8.65;6.75;;;;;;;3.69;100.00;100371.83;256142;1099;114197;-79
2021/05/04 01:36:26;;;;;;;7.00;5.50;;;;;;;3.67;100.00;100370.07;256307;1104;114586;-76
2021/05/04 01:41:27;;;;;;;7.75;5.78;;;;;;;3.70;100.00;100363.03;255893;1100;114335;-78
2021/05/04 01:46:32;;;;;;;10.10;5.90;;;;;;;3.77;100.00;100348.88;255621;1104;114786;-78
2021/05/04 01:51:37;;;;;;;9.80;6.50;;;;;;;3.68;100.00;100339.33;256482;1104;114629;-78
2021/05/04 01:56:38;;;;;;;8.65;6.33;;;;;;;3.63;100.00;100331.47;256208;1099;114293;-78
2021/05/04 02:01:40;;;;;;;7.18;5.50;;;;;;;3.63;100.00;100326.20;256241;1099;114243;-77
2021/05/04 02:06:42;;;;;;;8.18;6.28;;;;;;;3.66;100.00;100315.59;256566;1104;114483;-78
2021/05/04 02:11:44;;;;;;;7.85;6.05;;;;;;;3.51;100.00;100326.36;256513;1100;114859;-79
2021/05/04 02:16:45;;;;;;;8.90;5.80;;;;;;;3.42;100.00;100323.82;256436;1104;114124;-78
2021/05/04 02:21:47;;;;;;;8.48;5.95;;;;;;;3.40;100.00;100317.69;256443;1104;114316;-77
2021/05/04 02:26:49;;;;;;;7.93;5.83;;;;;;;3.45;100.00;100321.16;256563;1100;114270;-79
2021/05/04 02:31:50;;;;;;;9.10;7.28;;;;;;;3.33;100.00;100315.13;256524;1100;114118;-78
2021/05/04 02:36:52;;;;;;;7.98;6.05;;;;;;;3.33;100.00;100320.39;256069;1099;114247;-77
2021/05/04 02:41:53;;;;;;;8.45;5.65;;;;;;;3.31;100.00;100314.27;256298;1098;114469;-77
2021/05/04 02:46:56;;;;;;;6.43;5.38;;;;;;;3.35;100.00;100308.09;258567;1104;114524;-78
2021/05/04 02:51:57;;;;;;;6.83;5.25;;;;;;;3.32;100.00;100310.74;257178;1099;114248;-76
2021/05/04 02:56:59;;;;;;;7.43;5.70;;;;;;;3.23;100.00;100304.70;257890;1100;114170;-77
2021/05/04 03:02:01;;;;;;;7.18;5.63;;;;;;;3.31;100.00;100301.09;257603;1099;114522;-76
2021/05/04 03:07:03;;;;;;;6.88;4.93;;;;;;;3.23;100.00;100308.23;263157;1104;114352;-77
2021/05/04 03:12:05;;;;;;;7.90;6.33;;;;;;;3.31;100.00;100305.50;261706;1100;114449;-77
2021/05/04 03:17:07;;;;;;;9.18;5.90;;;;;;;3.22;100.00;100303.84;256543;1104;114388;-78
2021/05/04 03:22:09;;;;;;;8.30;6.03;;;;;;;3.08;100.00;100305.77;256299;1104;114636;-79
2021/05/04 03:27:11;;;;;;;8.28;5.45;;;;;;;3.16;100.00;100306.55;256562;1099;114529;-78
2021/05/04 03:32:12;;;;;;;9.18;6.05;;;;;;;3.14;100.00;100308.33;256387;1099;114296;-77
2021/05/04 03:37:14;;;;;;;8.43;6.53;;;;;;;3.15;100.00;100303.03;256534;1104;114108;-77
2021/05/04 03:42:16;;;;;;;7.38;5.93;;;;;;;3.15;100.00;100304.80;256111;1104;114081;-77
2021/05/04 03:47:18;;;;;;;9.00;5.93;;;;;;;3.19;100.00;100301.23;256341;1099;114355;-78
2021/05/04 03:52:19;;;;;;;8.38;6.63;;;;;;;3.37;100.00;100308.06;256193;1104;114662;-78
2021/05/04 03:57:21;;;;;;;6.88;6.03;;;;;;;3.38;100.00;100298.41;256376;1104;114141;-77
2021/05/04 04:02:23;;;;;;;6.83;5.95;;;;;;;3.43;100.00;100293.95;256269;1099;114463;-77
2021/05/04 04:07:24;;;;;;;10.85;6.00;;;;;;;3.50;100.00;100288.56;256306;1104;114401;-78
2021/05/04 04:12:26;;;;;;;6.10;5.50;;;;;;;3.66;100.00;100293.65;256199;1100;114587;-78
2021/05/04 04:17:28;;;;;;;7.93;6.00;;;;;;;3.77;100.00;100294.36;256323;1099;114673;-76
2021/05/04 04:22:30;;;;;;;10.80;6.88;;;;;;;3.83;100.00;100286.39;256214;1100;114578;-76
2021/05/04 04:27:31;;;;;;;7.40;6.05;;;;;;;3.87;100.00;100284.59;256381;1100;114368;-77
2021/05/04 04:32:33;;;;;;;9.10;6.93;;;;;;;3.91;100.00;100277.51;256190;1100;114633;-77
2021/05/04 04:37:35;;;;;;;8.13;5.93;;;;;;;4.06;100.00;100271.98;255861;1104;114877;-77
2021/05/04 04:42:37;;;;;;;8.20;6.25;;;;;;;4.20;100.00;100273.53;256331;1104;114496;-76
2021/05/04 04:47:38;;;;;;;8.68;6.68;;;;;;;4.33;100.00;100268.94;254744;1105;114617;-75
2021/05/04 04:52:40;;;;;;;6.15;5.43;;;;;;;4.43;100.00;100271.40;256133;1104;114498;-75
2021/05/04 04:57:42;;;;;;;10.33;6.27;;;;;;;4.54;100.00;100268.58;256247;1104;114205;-77
2021/05/04 05:02:43;;;;;;;8.13;5.85;;;;;;;4.79;100.00;100262.88;256213;1100;114281;-75
2021/05/04 05:07:47;;;;;;;10.55;5.65;;;;;;;5.02;100.00;100266.84;255939;1100;114936;-76
2021/05/04 05:12:48;;;;;;;8.03;5.80;;;;;;;5.20;100.00;100268.25;255797;1104;114467;-75
2021/05/04 05:17:50;;;;;;;6.68;5.25;;;;;;;5.37;100.00;100249.41;255989;1099;114311;-76
2021/05/04 05:22:52;;;;;;;6.18;5.40;;;;;;;5.48;100.00;100254.47;256127;1100;114333;-77
2021/05/04 05:27:54;;;;;;;6.00;4.98;;;;;;;5.64;100.00;100255.03;256220;1104;114224;-81
2021/05/04 05:32:55;;;;;;;5.93;5.33;;;;;;;5.81;100.00;100255.52;255516;1104;114189;-75
2021/05/04 05:37:57;;;;;;;8.00;6.40;;;;;;;6.06;100.00;100252.34;255997;1099;114685;-74
2021/05/04 05:42:59;;;;;;;6.33;5.50;;;;;;;6.17;100.00;100246.77;256091;1099;115448;-76
2021/05/04 05:48:01;;;;;;;6.63;5.50;;;;;;;6.32;100.00;100241.10;256244;1100;114712;-74
2021/05/04 05:53:02;;;;;;;6.38;5.05;;;;;;;6.46;100.00;100243.42;256509;1104;114468;-76
2021/05/04 05:58:04;;;;;;;8.38;5.08;;;;;;;6.59;100.00;100237.80;256341;1100;114397;-75
2021/05/04 06:03:06;;;;;;;6.63;4.48;;;;;;;6.73;100.00;100227.71;256465;1100;114653;-75
2021/05/04 06:08:07;;;;;;;6.80;4.83;;;;;;;6.99;100.00;100220.81;256418;1104;114379;-76
2021/05/04 06:13:09;;;;;;;5.13;3.67;;;;;;;7.09;100.00;100221.42;256331;1100;114596;-74
2021/05/04 06:18:11;;;;;;;4.45;3.80;;;;;;;7.30;100.00;100222.60;255978;1104;114542;-72
2021/05/04 06:23:13;;;;;;;3.65;2.95;;;;;;;7.45;98.15;100210.66;255582;1104;114511;-74
2021/05/04 06:28:15;;;;;;;4.57;3.27;;;;;;;7.63;97.09;100202.16;255805;1099;114041;-73
2021/05/04 06:33:17;;;;;;;3.80;3.35;;;;;;;7.73;99.30;100192.13;256026;1099;114076;-74
2021/05/04 06:38:19;;;;;;;6.07;3.30;;;;;;;7.96;95.03;100182.56;255796;1104;114348;-74
2021/05/04 06:43:22;;;;;;;4.33;2.90;;;;;;;8.07;93.29;100180.41;256319;1104;114282;-74
2021/05/04 06:48:24;;;;;;;4.93;3.50;;;;;;;8.19;92.39;100163.21;256265;1104;113940;-74
2021/05/04 06:53:26;;;;;;;4.13;2.63;;;;;;;8.37;92.11;100159.06;256147;1104;114035;-75
2021/05/04 06:58:27;;;;;;;3.50;2.97;;;;;;;8.53;92.27;100155.91;255758;1099;114113;-75
2021/05/04 07:03:29;;;;;;;5.98;2.70;;;;;;;8.70;88.36;100148.19;256147;1100;113930;-74
2021/05/04 07:08:31;;;;;;;3.70;3.00;;;;;;;9.11;86.93;100157.34;255996;1104;114122;-73
2021/05/04 07:13:32;;;;;;;4.13;3.40;;;;;;;9.18;85.11;100143.77;256205;1104;114184;-73
2021/05/04 07:18:35;;;;;;;4.90;3.43;;;;;;;9.31;86.36;100137.97;255297;1100;114536;-72
2021/05/04 07:23:37;;;;;;;5.33;4.58;;;;;;;9.38;81.73;100134.14;255927;1099;114228;-72
2021/05/04 07:28:39;;;;;;;4.20;2.83;;;;;;;9.51;85.59;100127.41;256054;1104;114171;-74
2021/05/04 07:33:40;;;;;;;3.60;3.30;;;;;;;9.64;83.64;100134.89;256220;1100;114244;-73
2021/05/04 07:38:42;;;;;;;3.00;2.70;;;;;;;9.62;82.19;100112.81;255934;1100;114260;-72
2021/05/04 07:43:44;;;;;;;2.70;2.50;;;;;;;9.77;82.38;100098.00;255611;1104;114525;-76
2021/05/04 07:48:45;;;;;;;3.20;2.93;;;;;;;9.92;78.38;100088.49;256247;1099;114848;-74
2021/05/04 07:53:48;;;;;;;3.70;2.78;;;;;;;10.00;79.08;100089.04;256193;1099;114307;-73
2021/05/04 07:58:50;;;;;;;3.00;2.70;;;;;;;10.17;70.63;100090.98;255814;1104;114542;-75
2021/05/04 08:03:52;;;;;;;3.70;2.80;;;;;;;10.55;72.30;100083.14;256205;1104;114477;-78
2021/05/04 08:08:53;;;;;;;3.47;2.40;;;;;;;10.68;68.64;100060.33;256095;1100;115216;-75
2021/05/04 08:13:55;;;;;;;3.00;2.45;;;;;;;10.82;67.73;100050.81;256189;1104;114538;-75
2021/05/04 08:18:58;;;;;;;2.08;1.88;;;;;;;10.92;65.75;100053.92;256122;1100;114415;-76
2021/05/04 08:24:00;;;;;;;3.48;3.10;;;;;;;10.97;63.92;100049.22;255731;1099;115326;-73
2021/05/04 08:29:03;;;;;;;3.13;2.20;;;;;;;11.03;58.37;100042.74;255549;1104;114673;-73
2021/05/04 08:34:05;;;;;;;2.83;2.50;;;;;;;11.19;56.44;100049.09;255503;1104;114521;-74
2021/05/04 08:39:07;;;;;;;3.88;2.63;;;;;;;11.16;56.48;100041.22;255668;1104;114708;-75
2021/05/04 08:44:19;;;;;;;4.20;2.60;;;;;;;11.38;54.66;100038.39;255540;1104;114561;-73
2021/05/04 08:49:21;;;;;;;3.00;2.47;;;;;;;11.41;52.41;100018.69;255876;1100;114616;-75
2021/05/04 08:54:23;;;;;;;3.10;2.70;;;;;;;11.49;54.11;100021.81;256036;1100;114543;-74
2021/05/04 08:59:24;;;;;;;5.53;3.10;;;;;;;11.54;52.13;100017.13;255988;1100;215072;-73
2021/05/04 09:04:36;;;;;;;4.98;2.88;;;;;;;11.63;52.26;99984.61;255369;1099;114707;-76
2021/05/04 09:15:46;;;;;;;4.83;4.18;;;;;;;11.86;53.03;99971.89;256112;1104;114518;-75
2021/05/04 09:21:06;;;;;;;3.63;2.33;;;;;;;11.89;51.63;99963.73;256163;1100;114455;-74
2021/05/04 09:26:21;;;;;;;3.33;2.53;;;;;;;12.18;51.83;99941.77;255819;1099;114660;-74
2021/05/04 09:31:25;;;;;;;6.48;3.33;;;;;;;12.22;45.96;99954.89;255964;1104;114639;-74
2021/05/04 09:36:42;;;;;;;3.40;2.30;;;;;;;12.30;44.03;99946.45;256460;1104;114564;-76
2021/05/04 09:41:44;;;;;;;4.28;2.60;;;;;;;12.47;45.27;99950.90;256582;1099;114594;-75
2021/05/04 09:46:49;;;;;;;2.65;1.93;;;;;;;12.62;44.39;99922.44;255988;1100;114737;-75
2021/05/04 09:51:52;;;;;;;;;;;;;;;12.51;42.68;99912.34;256447;1099;114503;-73
2021/05/04 09:56:55;;;;;;;2.83;2.63;;;;;;;12.98;44.89;99893.66;255501;1104;103102;-76
2021/05/04 10:01:58;;;;;;;3.53;3.00;;;;;;;13.04;43.56;99883.48;255419;1104;114581;-74
2021/05/04 10:07:00;;;;;;;3.63;2.03;;;;;;;13.07;43.58;99871.73;255834;1100;114468;-75
2021/05/04 10:12:02;;;;;;;4.13;2.30;;;;;;;12.90;42.06;99876.24;255872;1099;114607;-77
2021/05/04 10:17:04;;;;;;;3.73;2.08;;;;;;;12.79;42.08;99865.31;256307;1104;114408;-74
2021/05/04 10:22:06;;;;;;;6.80;5.15;;;;;;;12.78;44.19;99860.06;256646;1099;114550;-74
2021/05/04 10:27:09;;;;;;;2.60;1.95;;;;;;;12.81;43.51;99854.52;256087;1104;114285;-75
2021/05/04 10:32:15;;;;;;;3.20;2.58;;;;;;;12.70;42.90;99857.81;256657;1104;114342;-74
2021/05/04 10:37:22;;;;;;;3.65;2.60;;;;;;;12.82;44.25;99845.55;256076;1104;114178;-73
2021/05/04 10:42:36;;;;;;;2.90;2.70;;;;;;;12.59;44.22;99821.88;256138;1100;114652;-72
2021/05/04 10:47:44;;;;;;;4.18;3.15;;;;;;;12.57;44.24;99834.46;256417;1104;114510;-73
2021/05/04 10:52:49;;;;;;;3.38;2.50;;;;;;;12.74;44.76;99795.20;255963;1104;114513;-74
2021/05/04 10:58:05;;;;;;;;;;;;;;;12.85;44.30;99794.56;256246;1104;114388;-73
2021/05/04 11:03:43;;;;;;;3.43;2.65;;;;;;;12.80;44.75;99794.83;255906;1104;103543;-73
2021/05/04 11:08:47;;;;;;;3.18;2.88;;;;;;;12.73;44.80;99782.77;255386;1104;114535;-74
2021/05/04 11:13:53;;;;;;;2.38;2.00;;;;;;;12.98;44.22;99775.95;256068;1104;114576;-74
2021/05/04 11:19:28;;;;;;;2.63;2.38;;;;;;;13.29;44.91;99768.75;256172;1104;114522;-74
2021/05/04 11:24:33;;;;;;;3.17;2.00;;;;;;;14.03;43.36;99745.38;254758;1107;114561;-74
2021/05/04 11:29:35;;;;;;;3.33;2.30;;;;;;;13.63;43.69;99735.42;255019;1100;114264;-75
2021/05/04 11:34:39;;;;;;;3.45;2.78;;;;;;;13.31;44.54;99737.41;255851;1104;114422;-72
2021/05/04 11:39:56;;;;;;;2.95;2.38;;;;;;;13.30;44.02;99717.79;256303;1104;114234;-72
2021/05/04 11:45:17;;;;;;;2.45;2.20;;;;;;;13.33;45.40;99716.73;255612;1100;114295;-72
2021/05/04 11:50:29;;;;;;;3.48;3.03;;;;;;;13.27;44.98;99727.83;255600;1099;114303;-74
2021/05/04 11:55:37;;;;;;;2.30;2.10;;;;;;;13.03;45.30;99682.92;255407;1100;114154;-72
2021/05/04 12:00:39;;;;;;;3.00;2.38;;;;;;;13.10;45.95;99686.94;255595;1100;114252;-72
2021/05/04 12:05:45;;;;;;;4.63;2.60;;;;;;;13.28;45.18;99665.31;255517;1100;114545;-72
2021/05/04 12:10:49;;;;;;;2.33;2.13;;;;;;;13.48;44.54;99654.23;255923;1104;114614;-73
2021/05/04 12:16:01;;;;;;;2.38;2.18;;;;;;;13.45;44.14;99635.70;255389;1104;114461;-73
2021/05/04 12:21:07;;;;;;;2.55;2.35;;;;;;;13.49;44.76;99631.86;255714;1104;114306;-72
2021/05/04 12:26:15;;;;;;;2.83;2.60;;;;;;;13.44;46.88;99638.46;255808;1099;114179;-74
2021/05/04 12:31:31;;;;;;;3.03;2.73;;;;;;;13.48;47.38;99623.94;255802;1104;114435;-75
2021/05/04 12:41:51;;;;;;;3.73;3.23;;;;;;;13.33;46.79;99601.64;255041;1104;114454;-74
2021/05/04 12:46:59;;;;;;;3.45;2.48;;;;;;;13.38;47.48;99588.88;255545;1100;114374;-72
2021/05/04 12:52:11;;;;;;;4.08;3.13;;;;;;;13.48;47.90;99584.63;255269;1104;114191;-72
2021/05/04 12:57:19;;;;;;;3.07;2.53;;;;;;;13.55;48.17;99582.42;255078;1099;114367;-72
2021/05/04 13:02:31;;;;;;;2.50;2.28;;;;;;;13.54;48.15;99570.83;255425;1100;114416;-71
2021/05/04 13:07:41;;;;;;;3.75;2.38;;;;;;;13.59;49.05;99570.54;255347;1104;114407;-72
2021/05/04 13:29:43;;;;;;;2.53;2.28;;;;;;;13.65;47.51;99523.76;255869;1100;103183;-73
2021/05/04 13:50:22;;;;;;;5.43;3.55;;;;;;;13.57;48.93;99500.15;255361;1100;114458;-72
2021/05/04 13:55:24;;;;;;;4.08;3.33;;;;;;;13.62;47.94;99486.45;255466;1100;114302;-73
2021/05/04 14:00:35;;;;;;;3.50;3.20;;;;;;;13.64;48.81;99480.03;256149;1104;114175;-73
2021/05/04 14:26:35;;;;;;;3.35;2.35;;;;;;;13.80;48.32;99437.02;255595;1104;114556;-73
2021/05/04 14:31:37;;;;;;;5.10;2.23;;;;;;;13.81;49.14;99428.03;256088;1104;114364;-74
2021/05/04 14:57:58;;;;;;;2.33;2.15;;;;;;;13.89;48.88;99373.91;255690;1104;114559;-72
2021/05/04 15:03:00;;;;;;;3.20;2.33;;;;;;;13.88;48.84;99369.52;256099;1099;114215;-74
2021/05/04 15:08:02;;;;;;;2.55;2.35;;;;;;;13.92;48.97;99371.00;255976;1099;114110;-75
2021/05/04 15:13:07;;;;;;;4.17;3.00;;;;;;;13.92;48.75;99367.47;255463;1104;114368;-72
2021/05/04 15:23:19;;;;;;;3.87;2.60;;;;;;;13.96;49.45;99355.56;255403;1104;103188;-74
2021/05/04 15:28:22;;;;;;;1.98;1.78;;;;;;;13.98;48.72;99340.25;255497;1099;114654;-74
2021/05/04 15:33:27;;;;;;;4.00;2.85;;;;;;;13.94;49.45;99341.44;255709;1104;114420;-69
2021/05/04 15:38:29;;;;;;;5.15;2.30;;;;;;;14.03;48.03;99319.33;255464;1100;114348;-71
2021/05/04 15:43:31;;;;;;;2.58;2.10;;;;;;;13.99;48.81;99301.77;255318;1100;114754;-72
2021/05/04 16:09:30;;;;;;;4.40;4.00;;;;;;;14.25;47.54;99281.14;255010;1100;114511;-72
2021/05/04 16:14:32;;;;;;;3.60;2.38;;;;;;;14.37;45.23;99278.52;256028;1104;114173;-70
2021/05/04 16:19:37;;;;;;;2.80;2.50;;;;;;;14.39;45.14;99271.22;256186;1104;114687;-70
2021/05/04 16:30:08;;;;;;;4.55;2.60;;;;;;;14.41;45.58;99275.50;255715;1099;115424;-71
2021/05/04 16:35:10;;;;;;;3.77;2.73;;;;;;;14.38;45.40;99275.70;255439;1099;114323;-70
2021/05/04 16:40:14;;;;;;;4.55;4.03;;;;;;;14.41;46.21;99254.05;255653;1104;114311;-71
2021/05/04 16:45:17;;;;;;;4.20;3.10;;;;;;;14.31;46.50;99248.52;255401;1100;114831;-70
2021/05/04 16:50:19;;;;;;;3.25;2.28;;;;;;;14.29;45.81;99220.95;255487;1099;114413;-71
2021/05/04 16:55:21;;;;;;;3.60;3.28;;;;;;;14.42;45.69;99207.50;255368;1099;114372;-71
2021/05/04 17:00:25;;;;;;;3.10;2.90;;;;;;;14.41;45.93;99199.59;255334;1099;114456;-70
2021/05/04 17:05:27;;;;;;;3.03;2.73;;;;;;;14.40;46.22;99179.11;255372;1104;114567;-72
2021/05/04 17:10:32;;;;;;;3.23;2.93;;;;;;;14.38;46.07;99181.03;255260;1099;114448;-70
2021/05/04 17:15:34;;;;;;;2.53;2.03;;;;;;;14.44;45.98;99173.40;255326;1100;114666;-69
2021/05/04 17:20:35;;;;;;;4.23;2.78;;;;;;;14.38;46.08;99176.52;255325;1100;114183;-71
2021/05/04 17:25:37;;;;;;;2.93;2.63;;;;;;;14.58;44.95;99179.54;255438;1104;114131;-70
2021/05/04 17:30:39;;;;;;;3.85;3.20;;;;;;;14.58;45.49;99179.54;255563;1099;114657;-69
2021/05/04 17:35:41;;;;;;;3.77;3.13;;;;;;;14.59;46.57;99191.98;255471;1100;114732;-70
2021/05/04 17:40:45;;;;;;;4.30;3.45;;;;;;;14.59;47.08;99219.64;255220;1100;114358;-73
2021/05/04 17:45:47;;;;;;;4.45;4.05;;;;;;;14.41;50.00;99221.88;254856;1100;114655;-71
2021/05/04 17:50:55;;;;;;;6.05;4.00;;;;;;;14.29;50.16;99238.88;255227;1100;114284;-70
2021/05/04 17:55:57;;;;;;;4.13;3.63;;;;;;;14.32;50.63;99222.55;255508;1104;114320;-74
2021/05/04 18:00:59;;;;;;;3.53;3.10;;;;;;;14.13;52.06;99226.61;255114;1100;114556;-71
2021/05/04 18:06:03;;;;;;;4.77;3.67;;;;;;;14.13;51.88;99234.64;255502;1100;114470;-73
2021/05/04 18:11:08;;;;;;;3.78;3.05;;;;;;;14.01;52.78;99232.87;255349;1099;114462;-72
2021/05/04 18:21:29;;;;;;;3.55;3.00;;;;;;;13.92;53.35;99185.31;255348;1100;114205;-71
2021/05/04 18:26:31;;;;;;;5.45;2.90;;;;;;;13.88;52.29;99187.36;255560;1099;114677;-73
2021/05/04 18:31:37;;;;;;;3.40;2.48;;;;;;;13.92;52.13;99171.91;255311;1104;114516;-71
2021/05/04 18:36:46;;;;;;;8.63;7.15;;;;;;;13.84;52.70;99186.72;255525;1104;114200;-74
2021/05/04 19:08:33;;;;;;;3.58;1.90;;;;;;;13.45;54.43;99180.62;256180;1100;114224;-75
2021/05/04 19:24:16;;;;;;;3.17;1.53;;;;;;;13.28;56.01;99141.64;255897;1104;114538;-73
2021/05/04 20:16:41;;;;;;;2.70;2.15;;;;;;;13.14;53.33;99065.02;255308;1100;114336;-74
2021/05/04 20:21:43;;;;;;;2.60;2.40;;;;;;;13.11;53.96;99065.22;255937;1100;114309;-76
2021/05/04 20:26:46;;;;;;;2.60;2.28;;;;;;;13.02;55.09;99071.25;256309;1099;114271;-76
2021/05/04 20:31:50;;;;;;;2.40;1.85;;;;;;;13.00;55.70;99073.17;256125;1104;114436;-76
2021/05/04 20:36:53;;;;;;;2.23;2.03;;;;;;;12.87;57.31;99074.05;255980;1099;116772;-74
2021/05/04 20:41:54;;;;;;;2.88;2.40;;;;;;;12.82;57.28;99076.20;256057;1104;114617;-74
2021/05/04 20:46:56;;;;;;;2.33;2.13;;;;;;;12.84;57.21;99076.92;255686;1101;114232;-75
2021/05/04 20:51:58;;;;;;;2.20;2.10;;;;;;;12.80;58.08;99072.77;255636;1100;114291;-74
2021/05/04 20:56:59;;;;;;;2.75;2.45;;;;;;;12.80;57.28;99072.77;255998;1104;114541;-76
2021/05/04 21:02:01;;;;;;;3.57;2.73;;;;;;;12.76;57.44;99076.61;256134;1099;114371;-75
2021/05/04 21:07:05;;;;;;;2.90;2.70;;;;;;;12.80;57.20;99074.58;255892;1099;114420;-75
2021/05/04 21:17:17;;;;;;;3.45;3.15;;;;;;;12.82;57.25;99081.55;256140;1099;114475;-74
2021/05/04 21:27:39;;;;;;;4.33;3.93;;;;;;;12.85;56.45;99096.52;255959;1100;114354;-74
2021/05/04 21:32:42;;;;;;;3.50;2.80;;;;;;;12.90;55.78;99087.19;256053;1104;114405;-73
2021/05/04 21:37:44;;;;;;;2.93;2.73;;;;;;;12.87;56.17;99090.09;255870;1099;114269;-75
2021/05/04 21:42:47;;;;;;;4.15;3.30;;;;;;;12.75;58.23;99090.97;256190;1100;114239;-74
2021/05/04 21:47:50;;;;;;;4.48;2.98;;;;;;;12.66;58.44;99081.75;256211;1104;114943;-74
2021/05/04 21:52:52;;;;;;;4.18;3.00;;;;;;;12.66;58.22;99080.91;256149;1105;114504;-76
2021/05/04 21:57:54;;;;;;;3.70;2.58;;;;;;;12.61;58.59;99075.03;256113;1100;114129;-74
2021/05/04 22:02:56;;;;;;;3.18;2.88;;;;;;;12.62;58.83;99087.41;256006;1104;116280;-75
2021/05/04 22:07:59;;;;;;;3.58;3.15;;;;;;;12.55;59.86;99082.49;256118;1104;114451;-75
2021/05/04 22:39:44;;;;;;;4.70;3.70;;;;;;;12.25;63.85;99110.38;256006;1099;114417;-75
2021/05/04 23:16:28;;;;;;;4.13;3.60;;;;;;;12.15;65.96;99036.30;256390;1099;114448;-74
2021/05/04 23:21:30;;;;;;;3.80;3.28;;;;;;;12.11;67.79;99046.34;256071;1100;114261;-74
2021/05/04 23:26:32;;;;;;;4.18;3.78;;;;;;;11.83;77.48;99050.84;256060;1099;114523;-75
2021/05/04 23:31:34;;;;;;;4.30;3.90;;;;;;;11.95;70.07;99044.67;256150;1104;114390;-75
2021/05/04 23:36:35;;;;;;;6.15;4.20;;;;;;;11.88;73.61;99038.03;256075;1104;114192;-74
2021/05/04 23:41:37;;;;;;;8.58;7.20;;;;;;;11.87;74.89;99022.12;256085;1104;114045;-74
2021/05/04 23:46:39;;;;;;;4.75;3.98;;;;;;;11.79;75.97;99017.27;256083;1104;114568;-74
2021/05/04 23:51:40;;;;;;;3.40;3.10;;;;;;;11.77;77.41;99013.88;256118;1099;114238;-75
2021/05/04 23:56:42;;;;;;;4.03;3.63;;;;;;;11.73;79.56;99012.34;255891;1104;114539;-75
